sensor_id;sensor_type;location;lat;lon;timestamp;P1;durP1;ratioP1;P2;durP2;ratioP2
16579;SDS011;8402;51.466;6.806;2023-09-08T00:01:27;8.88;;;6.68;;
16579;SDS011;8402;51.466;6.806;2023-09-08T00:03:57;9.45;;;6.60;;
16579;SDS011;8402;51.466;6.806;2023-09-08T00:06:27;11.57;;;6.75;;
16579;SDS011;8402;51.466;6.806;2023-09-08T00:08:57;10.55;;;6.35;;
16579;SDS011;8402;51.466;6.806;2023-09-08T00:11:27;10.25;;;6.88;;
16579;SDS011;8402;51.466;6.806;2023-09-08T05:46:52;18.67;;;8.98;;
16579;SDS011;8402;51.466;6.806;2023-09-08T05:49:22;15.27;;;8.18;;
16579;SDS011;8402;51.466;6.806;2023-09-08T05:54:59;14.38;;;7.90;;
16579;SDS011;8402;51.466;6.806;2023-09-08T05:57:29;16.10;;;8.05;;
16579;SDS011;8402;51.466;6.806;2023-09-08T06:00:01;18.77;;;8.60;;
16579;SDS011;8402;51.466;6.806;2023-09-08T06:02:34;14.98;;;7.90;;
16579;SDS011;8402;51.466;6.806;2023-09-08T06:05:05;17.88;;;8.48;;
16579;SDS011;8402;51.466;6.806;2023-09-08T06:07:35;18.67;;;8.55;;
16579;SDS011;8402;51.466;6.806;2023-09-08T06:10:06;21.80;;;8.40;;
16579;SDS011;8402;51.466;6.806;2023-09-08T06:12:37;15.13;;;9.20;;
16579;SDS011;8402;51.466;6.806;2023-09-08T06:15:07;22.77;;;9.15;;
16579;SDS011;8402;51.466;6.806;2023-09-08T06:17:40;25.77;;;8.80;;
16579;SDS011;8402;51.466;6.806;2023-09-08T06:20:11;21.13;;;8.77;;
16579;SDS011;8402;51.466;6.806;2023-09-08T06:22:42;19.60;;;9.10;;
16579;SDS011;8402;51.466;6.806;2023-09-08T06:25:12;27.13;;;9.15;;
16579;SDS011;8402;51.466;6.806;2023-09-08T06:27:42;21.53;;;8.70;;
16579;SDS011;8402;51.466;6.806;2023-09-08T06:30:12;18.35;;;9.25;;
16579;SDS011;8402;51.466;6.806;2023-09-08T06:32:47;22.20;;;9.50;;
16579;SDS011;8402;51.466;6.806;2023-09-08T06:35:17;18.23;;;8.52;;
16579;SDS011;8402;51.466;6.806;2023-09-08T06:37:47;19.80;;;9.53;;
16579;SDS011;8402;51.466;6.806;2023-09-08T06:40:17;21.88;;;9.48;;
16579;SDS011;8402;51.466;6.806;2023-09-08T06:42:47;17.92;;;9.15;;
16579;SDS011;8402;51.466;6.806;2023-09-08T06:45:20;16.33;;;9.50;;
16579;SDS011;8402;51.466;6.806;2023-09-08T06:47:52;16.80;;;8.35;;
16579;SDS011;8402;51.466;6.806;2023-09-08T06:50:23;14.95;;;8.95;;
16579;SDS011;8402;51.466;6.806;2023-09-08T06:52:53;18.63;;;8.45;;
16579;SDS011;8402;51.466;6.806;2023-09-08T06:55:23;17.58;;;8.75;;
16579;SDS011;8402;51.466;6.806;2023-09-08T06:57:53;15.23;;;7.95;;
16579;SDS011;8402;51.466;6.806;2023-09-08T07:00:23;12.02;;;7.72;;
16579;SDS011;8402;51.466;6.806;2023-09-08T07:02:56;13.00;;;8.18;;
16579;SDS011;8402;51.466;6.806;2023-09-08T07:05:29;18.02;;;8.30;;
16579;SDS011;8402;51.466;6.806;2023-09-08T07:07:59;18.58;;;9.00;;
16579;SDS011;8402;51.466;6.806;2023-09-08T07:10:29;16.42;;;8.10;;
16579;SDS011;8402;51.466;6.806;2023-09-08T07:12:58;21.15;;;8.45;;
16579;SDS011;8402;51.466;6.806;2023-09-08T07:15:31;15.95;;;8.30;;
16579;SDS011;8402;51.466;6.806;2023-09-08T07:18:04;15.65;;;8.52;;
16579;SDS011;8402;51.466;6.806;2023-09-08T07:20:34;15.00;;;7.97;;
16579;SDS011;8402;51.466;6.806;2023-09-08T07:23:05;14.10;;;7.93;;
16579;SDS011;8402;51.466;6.806;2023-09-08T07:25:35;12.32;;;8.10;;
16579;SDS011;8402;51.466;6.806;2023-09-08T07:28:06;15.13;;;7.95;;
16579;SDS011;8402;51.466;6.806;2023-09-08T07:30:36;17.08;;;7.80;;
16579;SDS011;8402;51.466;6.806;2023-09-08T07:33:10;10.68;;;7.55;;
16579;SDS011;8402;51.466;6.806;2023-09-08T07:35:40;12.27;;;7.85;;
16579;SDS011;8402;51.466;6.806;2023-09-08T07:38:10;11.70;;;7.75;;
16579;SDS011;8402;51.466;6.806;2023-09-08T07:40:40;11.75;;;6.78;;
16579;SDS011;8402;51.466;6.806;2023-09-08T07:43:11;11.07;;;6.97;;
16579;SDS011;8402;51.466;6.806;2023-09-08T07:45:41;10.60;;;6.60;;
16579;SDS011;8402;51.466;6.806;2023-09-08T07:48:13;9.80;;;6.10;;
16579;SDS011;8402;51.466;6.806;2023-09-08T07:50:43;9.52;;;6.45;;
16579;SDS011;8402;51.466;6.806;2023-09-08T07:53:13;12.93;;;6.68;;
16579;SDS011;8402;51.466;6.806;2023-09-08T07:55:43;9.88;;;6.07;;
16579;SDS011;8402;51.466;6.806;2023-09-08T07:58:13;10.02;;;6.22;;
16579;SDS011;8402;51.466;6.806;2023-09-08T08:00:42;11.55;;;5.57;;
16579;SDS011;8402;51.466;6.806;2023-09-08T08:03:15;10.10;;;6.30;;
16579;SDS011;8402;51.466;6.806;2023-09-08T08:05:45;11.80;;;6.30;;
16579;SDS011;8402;51.466;6.806;2023-09-08T08:08:15;9.43;;;6.20;;
16579;SDS011;8402;51.466;6.806;2023-09-08T08:10:45;11.30;;;5.60;;
16579;SDS011;8402;51.466;6.806;2023-09-08T08:13:15;7.93;;;5.65;;
16579;SDS011;8402;51.466;6.806;2023-09-08T08:15:46;12.75;;;5.90;;
16579;SDS011;8402;51.466;6.806;2023-09-08T08:18:19;9.75;;;6.28;;
16579;SDS011;8402;51.466;6.806;2023-09-08T08:20:48;9.32;;;5.45;;
16579;SDS011;8402;51.466;6.806;2023-09-08T08:23:18;7.95;;;5.38;;
16579;SDS011;8402;51.466;6.806;2023-09-08T08:25:48;9.32;;;5.00;;
16579;SDS011;8402;51.466;6.806;2023-09-08T08:28:18;6.93;;;4.85;;
16579;SDS011;8402;51.466;6.806;2023-09-08T08:30:48;5.50;;;4.90;;
16579;SDS011;8402;51.466;6.806;2023-09-08T08:33:21;8.52;;;4.43;;
16579;SDS011;8402;51.466;6.806;2023-09-08T08:35:52;6.38;;;4.85;;
16579;SDS011;8402;51.466;6.806;2023-09-08T08:38:22;8.77;;;4.35;;
16579;SDS011;8402;51.466;6.806;2023-09-08T08:40:52;5.63;;;4.40;;
16579;SDS011;8402;51.466;6.806;2023-09-08T08:43:22;6.78;;;4.22;;
16579;SDS011;8402;51.466;6.806;2023-09-08T08:45:53;6.80;;;4.60;;
16579;SDS011;8402;51.466;6.806;2023-09-08T08:48:27;8.50;;;4.10;;
16579;SDS011;8402;51.466;6.806;2023-09-08T08:51:02;9.45;;;4.72;;
16579;SDS011;8402;51.466;6.806;2023-09-08T08:53:32;7.10;;;4.57;;
16579;SDS011;8402;51.466;6.806;2023-09-08T08:56:04;6.10;;;4.70;;
16579;SDS011;8402;51.466;6.806;2023-09-08T08:58:36;6.10;;;4.40;;
16579;SDS011;8402;51.466;6.806;2023-09-08T09:01:08;7.22;;;4.53;;
16579;SDS011;8402;51.466;6.806;2023-09-08T09:03:42;6.80;;;4.50;;
16579;SDS011;8402;51.466;6.806;2023-09-08T09:06:15;7.90;;;4.57;;
16579;SDS011;8402;51.466;6.806;2023-09-08T09:08:45;6.13;;;4.28;;
16579;SDS011;8402;51.466;6.806;2023-09-08T09:11:15;5.53;;;4.32;;
16579;SDS011;8402;51.466;6.806;2023-09-08T09:13:46;10.13;;;4.82;;
16579;SDS011;8402;51.466;6.806;2023-09-08T09:16:15;6.82;;;4.50;;
16579;SDS011;8402;51.466;6.806;2023-09-08T09:18:58;6.43;;;4.28;;
16579;SDS011;8402;51.466;6.806;2023-09-08T09:21:40;11.52;;;4.82;;
16579;SDS011;8402;51.466;6.806;2023-09-08T09:24:15;5.63;;;4.35;;
16579;SDS011;8402;51.466;6.806;2023-09-08T09:26:46;8.38;;;5.10;;
16579;SDS011;8402;51.466;6.806;2023-09-08T09:29:22;7.70;;;4.45;;
16579;SDS011;8402;51.466;6.806;2023-09-08T09:31:52;5.32;;;4.57;;
16579;SDS011;8402;51.466;6.806;2023-09-08T09:34:26;6.65;;;5.00;;
16579;SDS011;8402;51.466;6.806;2023-09-08T09:36:56;6.32;;;4.65;;
16579;SDS011;8402;51.466;6.806;2023-09-08T09:39:31;4.88;;;4.38;;
16579;SDS011;8402;51.466;6.806;2023-09-08T09:42:01;7.63;;;5.18;;
16579;SDS011;8402;51.466;6.806;2023-09-08T09:44:31;6.72;;;4.40;;
16579;SDS011;8402;51.466;6.806;2023-09-08T09:47:01;6.03;;;4.97;;
16579;SDS011;8402;51.466;6.806;2023-09-08T09:49:36;5.63;;;4.63;;
16579;SDS011;8402;51.466;6.806;2023-09-08T09:52:11;5.60;;;4.85;;
16579;SDS011;8402;51.466;6.806;2023-09-08T09:54:42;6.63;;;4.63;;
16579;SDS011;8402;51.466;6.806;2023-09-08T09:57:13;7.43;;;4.72;;
16579;SDS011;8402;51.466;6.806;2023-09-08T09:59:43;5.93;;;4.90;;
16579;SDS011;8402;51.466;6.806;2023-09-08T10:02:17;5.53;;;4.50;;
16579;SDS011;8402;51.466;6.806;2023-09-08T10:04:53;7.28;;;4.90;;
16579;SDS011;8402;51.466;6.806;2023-09-08T10:07:23;8.18;;;4.80;;
16579;SDS011;8402;51.466;6.806;2023-09-08T10:09:54;5.95;;;5.00;;
16579;SDS011;8402;51.466;6.806;2023-09-08T10:12:24;5.57;;;4.22;;
16579;SDS011;8402;51.466;6.806;2023-09-08T10:14:58;4.78;;;4.00;;
16579;SDS011;8402;51.466;6.806;2023-09-08T10:17:30;5.70;;;4.72;;
16579;SDS011;8402;51.466;6.806;2023-09-08T10:20:03;9.05;;;4.75;;
16579;SDS011;8402;51.466;6.806;2023-09-08T10:22:38;6.30;;;4.55;;
16579;SDS011;8402;51.466;6.806;2023-09-08T10:25:12;6.68;;;5.03;;
16579;SDS011;8402;51.466;6.806;2023-09-08T10:27:42;8.50;;;5.25;;
16579;SDS011;8402;51.466;6.806;2023-09-08T10:30:13;6.72;;;5.05;;
16579;SDS011;8402;51.466;6.806;2023-09-08T10:32:47;6.47;;;4.70;;
16579;SDS011;8402;51.466;6.806;2023-09-08T10:35:21;5.85;;;5.18;;
16579;SDS011;8402;51.466;6.806;2023-09-08T10:37:52;7.60;;;4.63;;
16579;SDS011;8402;51.466;6.806;2023-09-08T10:44:06;6.53;;;4.68;;
16579;SDS011;8402;51.466;6.806;2023-09-08T10:46:37;9.10;;;5.00;;
16579;SDS011;8402;51.466;6.806;2023-09-08T10:49:07;13.73;;;5.00;;
16579;SDS011;8402;51.466;6.806;2023-09-08T10:51:41;6.68;;;5.10;;
16579;SDS011;8402;51.466;6.806;2023-09-08T10:54:11;8.02;;;4.85;;
16579;SDS011;8402;51.466;6.806;2023-09-08T10:56:48;5.18;;;4.68;;
16579;SDS011;8402;51.466;6.806;2023-09-08T10:59:27;8.38;;;5.65;;
16579;SDS011;8402;51.466;6.806;2023-09-08T11:01:57;7.05;;;4.88;;
16579;SDS011;8402;51.466;6.806;2023-09-08T11:04:28;5.93;;;5.05;;
16579;SDS011;8402;51.466;6.806;2023-09-08T11:07:07;5.78;;;4.97;;
16579;SDS011;8402;51.466;6.806;2023-09-08T11:09:37;9.50;;;5.15;;
16579;SDS011;8402;51.466;6.806;2023-09-08T11:12:07;9.57;;;5.47;;
16579;SDS011;8402;51.466;6.806;2023-09-08T11:14:37;9.02;;;5.18;;
16579;SDS011;8402;51.466;6.806;2023-09-08T11:17:07;5.78;;;4.63;;
16579;SDS011;8402;51.466;6.806;2023-09-08T11:19:44;13.00;;;5.00;;
16579;SDS011;8402;51.466;6.806;2023-09-08T11:22:18;7.47;;;5.32;;
16579;SDS011;8402;51.466;6.806;2023-09-08T11:24:55;8.63;;;5.32;;
16579;SDS011;8402;51.466;6.806;2023-09-08T11:27:27;6.25;;;5.10;;
16579;SDS011;8402;51.466;6.806;2023-09-08T11:29:58;7.90;;;5.00;;
16579;SDS011;8402;51.466;6.806;2023-09-08T11:32:31;10.80;;;5.55;;
16579;SDS011;8402;51.466;6.806;2023-09-08T11:35:03;10.07;;;5.10;;
16579;SDS011;8402;51.466;6.806;2023-09-08T11:37:38;6.05;;;4.63;;
16579;SDS011;8402;51.466;6.806;2023-09-08T11:40:09;6.82;;;5.15;;
16579;SDS011;8402;51.466;6.806;2023-09-08T11:42:41;6.40;;;5.60;;
16579;SDS011;8402;51.466;6.806;2023-09-08T11:45:12;7.70;;;5.32;;
16579;SDS011;8402;51.466;6.806;2023-09-08T11:47:44;6.15;;;5.45;;
16579;SDS011;8402;51.466;6.806;2023-09-08T11:50:16;6.47;;;5.28;;
16579;SDS011;8402;51.466;6.806;2023-09-08T11:52:51;6.70;;;5.13;;
16579;SDS011;8402;51.466;6.806;2023-09-08T11:55:25;7.18;;;5.05;;
16579;SDS011;8402;51.466;6.806;2023-09-08T11:57:56;7.13;;;5.30;;
16579;SDS011;8402;51.466;6.806;2023-09-08T12:00:27;7.32;;;5.15;;
16579;SDS011;8402;51.466;6.806;2023-09-08T12:03:08;13.05;;;5.47;;
16579;SDS011;8402;51.466;6.806;2023-09-08T12:05:39;7.93;;;5.60;;
16579;SDS011;8402;51.466;6.806;2023-09-08T12:08:14;6.78;;;5.03;;
16579;SDS011;8402;51.466;6.806;2023-09-08T12:10:44;9.13;;;5.55;;
16579;SDS011;8402;51.466;6.806;2023-09-08T12:13:19;7.93;;;5.50;;
16579;SDS011;8402;51.466;6.806;2023-09-08T12:15:50;8.18;;;5.35;;
16579;SDS011;8402;51.466;6.806;2023-09-08T12:18:36;9.77;;;5.20;;
16579;SDS011;8402;51.466;6.806;2023-09-08T12:21:10;19.88;;;6.65;;
16579;SDS011;8402;51.466;6.806;2023-09-08T12:23:52;7.93;;;5.47;;
16579;SDS011;8402;51.466;6.806;2023-09-08T12:26:24;15.85;;;6.22;;
16579;SDS011;8402;51.466;6.806;2023-09-08T12:28:54;9.07;;;5.00;;
16579;SDS011;8402;51.466;6.806;2023-09-08T12:31:24;6.38;;;5.10;;
16579;SDS011;8402;51.466;6.806;2023-09-08T12:33:54;7.13;;;5.32;;
16579;SDS011;8402;51.466;6.806;2023-09-08T12:36:25;7.03;;;5.03;;
16579;SDS011;8402;51.466;6.806;2023-09-08T12:38:57;7.13;;;5.50;;
16579;SDS011;8402;51.466;6.806;2023-09-08T12:41:27;8.00;;;5.65;;
16579;SDS011;8402;51.466;6.806;2023-09-08T12:43:59;11.63;;;6.00;;
16579;SDS011;8402;51.466;6.806;2023-09-08T12:46:29;6.47;;;5.47;;
16579;SDS011;8402;51.466;6.806;2023-09-08T12:49:02;6.35;;;5.03;;
16579;SDS011;8402;51.466;6.806;2023-09-08T12:51:35;6.28;;;4.95;;
16579;SDS011;8402;51.466;6.806;2023-09-08T12:54:07;10.90;;;5.63;;
16579;SDS011;8402;51.466;6.806;2023-09-08T12:56:37;12.15;;;5.85;;
16579;SDS011;8402;51.466;6.806;2023-09-08T12:59:07;6.05;;;5.15;;
16579;SDS011;8402;51.466;6.806;2023-09-08T13:01:37;5.95;;;4.90;;
16579;SDS011;8402;51.466;6.806;2023-09-08T13:04:07;5.85;;;5.25;;
16579;SDS011;8402;51.466;6.806;2023-09-08T13:06:37;9.77;;;5.05;;
16579;SDS011;8402;51.466;6.806;2023-09-08T13:09:23;6.65;;;4.97;;
16579;SDS011;8402;51.466;6.806;2023-09-08T13:11:53;5.70;;;4.95;;
16579;SDS011;8402;51.466;6.806;2023-09-08T13:14:23;7.55;;;4.97;;
16579;SDS011;8402;51.466;6.806;2023-09-08T13:17:07;6.40;;;4.68;;
16579;SDS011;8402;51.466;6.806;2023-09-08T13:19:40;5.15;;;4.65;;
16579;SDS011;8402;51.466;6.806;2023-09-08T13:22:10;8.82;;;5.32;;
16579;SDS011;8402;51.466;6.806;2023-09-08T13:24:43;7.75;;;5.13;;
16579;SDS011;8402;51.466;6.806;2023-09-08T13:27:12;6.63;;;4.90;;
16579;SDS011;8402;51.466;6.806;2023-09-08T13:29:44;5.45;;;4.95;;
16579;SDS011;8402;51.466;6.806;2023-09-08T13:32:16;6.00;;;4.93;;
16579;SDS011;8402;51.466;6.806;2023-09-08T13:34:46;6.45;;;5.00;;
16579;SDS011;8402;51.466;6.806;2023-09-08T13:37:16;6.60;;;5.15;;
16579;SDS011;8402;51.466;6.806;2023-09-08T13:39:48;5.75;;;4.88;;
16579;SDS011;8402;51.466;6.806;2023-09-08T13:42:18;8.57;;;5.47;;
16579;SDS011;8402;51.466;6.806;2023-09-08T13:44:48;7.05;;;5.13;;
16579;SDS011;8402;51.466;6.806;2023-09-08T13:47:22;9.07;;;5.20;;
16579;SDS011;8402;51.466;6.806;2023-09-08T13:49:53;7.57;;;5.30;;
16579;SDS011;8402;51.466;6.806;2023-09-08T13:52:26;5.57;;;4.60;;
16579;SDS011;8402;51.466;6.806;2023-09-08T13:55:01;9.10;;;4.97;;
16579;SDS011;8402;51.466;6.806;2023-09-08T13:57:51;7.25;;;5.00;;
16579;SDS011;8402;51.466;6.806;2023-09-08T14:00:22;5.55;;;4.55;;
16579;SDS011;8402;51.466;6.806;2023-09-08T14:02:57;9.43;;;5.38;;
16579;SDS011;8402;51.466;6.806;2023-09-08T14:05:32;8.73;;;5.28;;
16579;SDS011;8402;51.466;6.806;2023-09-08T14:08:16;6.20;;;4.82;;
16579;SDS011;8402;51.466;6.806;2023-09-08T14:10:57;8.52;;;5.47;;
16579;SDS011;8402;51.466;6.806;2023-09-08T14:13:38;6.97;;;5.13;;
16579;SDS011;8402;51.466;6.806;2023-09-08T14:16:10;10.88;;;5.28;;
16579;SDS011;8402;51.466;6.806;2023-09-08T14:18:41;8.80;;;5.25;;
16579;SDS011;8402;51.466;6.806;2023-09-08T14:21:18;8.80;;;5.40;;
16579;SDS011;8402;51.466;6.806;2023-09-08T14:23:48;8.02;;;5.20;;
16579;SDS011;8402;51.466;6.806;2023-09-08T14:26:21;10.05;;;5.40;;
16579;SDS011;8402;51.466;6.806;2023-09-08T14:28:52;7.10;;;5.22;;
16579;SDS011;8402;51.466;6.806;2023-09-08T14:31:22;9.40;;;5.43;;
16579;SDS011;8402;51.466;6.806;2023-09-08T14:33:52;5.95;;;5.13;;
16579;SDS011;8402;51.466;6.806;2023-09-08T14:36:22;5.80;;;5.20;;
16579;SDS011;8402;51.466;6.806;2023-09-08T14:38:52;9.00;;;5.28;;
16579;SDS011;8402;51.466;6.806;2023-09-08T14:41:25;8.15;;;5.60;;
16579;SDS011;8402;51.466;6.806;2023-09-08T14:43:55;6.70;;;5.28;;
16579;SDS011;8402;51.466;6.806;2023-09-08T14:46:25;7.13;;;5.60;;
16579;SDS011;8402;51.466;6.806;2023-09-08T14:49:01;7.05;;;5.60;;
16579;SDS011;8402;51.466;6.806;2023-09-08T14:51:31;6.72;;;5.10;;
16579;SDS011;8402;51.466;6.806;2023-09-08T14:54:01;7.50;;;5.60;;
16579;SDS011;8402;51.466;6.806;2023-09-08T14:56:34;8.02;;;5.50;;
16579;SDS011;8402;51.466;6.806;2023-09-08T14:59:04;6.88;;;5.20;;
16579;SDS011;8402;51.466;6.806;2023-09-08T15:01:33;7.72;;;6.07;;
16579;SDS011;8402;51.466;6.806;2023-09-08T15:04:05;6.53;;;5.28;;
16579;SDS011;8402;51.466;6.806;2023-09-08T15:06:35;8.63;;;5.57;;
16579;SDS011;8402;51.466;6.806;2023-09-08T15:09:05;9.57;;;5.53;;
16579;SDS011;8402;51.466;6.806;2023-09-08T15:11:37;6.80;;;5.18;;
16579;SDS011;8402;51.466;6.806;2023-09-08T15:14:07;7.03;;;5.78;;
16579;SDS011;8402;51.466;6.806;2023-09-08T15:16:40;8.38;;;5.70;;
16579;SDS011;8402;51.466;6.806;2023-09-08T15:19:10;6.78;;;5.35;;
16579;SDS011;8402;51.466;6.806;2023-09-08T15:21:40;6.93;;;5.88;;
16579;SDS011;8402;51.466;6.806;2023-09-08T15:24:10;9.82;;;5.65;;
16579;SDS011;8402;51.466;6.806;2023-09-08T15:26:42;7.03;;;5.32;;
16579;SDS011;8402;51.466;6.806;2023-09-08T15:29:12;7.32;;;5.63;;
16579;SDS011;8402;51.466;6.806;2023-09-08T15:31:42;6.32;;;5.20;;
16579;SDS011;8402;51.466;6.806;2023-09-08T15:34:12;8.15;;;5.53;;
16579;SDS011;8402;51.466;6.806;2023-09-08T15:36:42;9.50;;;5.85;;
16579;SDS011;8402;51.466;6.806;2023-09-08T15:39:13;5.95;;;5.32;;
16579;SDS011;8402;51.466;6.806;2023-09-08T15:41:46;9.55;;;5.40;;
16579;SDS011;8402;51.466;6.806;2023-09-08T15:44:16;10.07;;;5.70;;
16579;SDS011;8402;51.466;6.806;2023-09-08T15:46:45;12.35;;;5.30;;
16579;SDS011;8402;51.466;6.806;2023-09-08T15:49:16;6.85;;;5.40;;
16579;SDS011;8402;51.466;6.806;2023-09-08T15:51:48;8.30;;;5.38;;
16579;SDS011;8402;51.466;6.806;2023-09-08T15:54:38;6.80;;;5.50;;
16579;SDS011;8402;51.466;6.806;2023-09-08T15:57:11;6.85;;;5.68;;
16579;SDS011;8402;51.466;6.806;2023-09-08T16:02:26;7.30;;;5.35;;
16579;SDS011;8402;51.466;6.806;2023-09-08T16:04:55;7.35;;;5.07;;
16579;SDS011;8402;51.466;6.806;2023-09-08T16:07:25;8.63;;;5.05;;
16579;SDS011;8402;51.466;6.806;2023-09-08T16:09:55;8.65;;;5.40;;
16579;SDS011;8402;51.466;6.806;2023-09-08T16:12:28;6.05;;;5.13;;
16579;SDS011;8402;51.466;6.806;2023-09-08T16:14:58;5.88;;;5.28;;
16579;SDS011;8402;51.466;6.806;2023-09-08T16:17:28;6.20;;;5.00;;
16579;SDS011;8402;51.466;6.806;2023-09-08T16:19:58;7.43;;;5.30;;
16579;SDS011;8402;51.466;6.806;2023-09-08T16:22:27;6.25;;;5.55;;
16579;SDS011;8402;51.466;6.806;2023-09-08T16:24:57;8.23;;;5.38;;
16579;SDS011;8402;51.466;6.806;2023-09-08T16:27:30;8.55;;;5.18;;
16579;SDS011;8402;51.466;6.806;2023-09-08T16:30:00;6.00;;;5.43;;
16579;SDS011;8402;51.466;6.806;2023-09-08T16:32:31;9.07;;;5.53;;
16579;SDS011;8402;51.466;6.806;2023-09-08T16:35:01;7.85;;;5.85;;
16579;SDS011;8402;51.466;6.806;2023-09-08T16:37:31;7.25;;;5.43;;
16579;SDS011;8402;51.466;6.806;2023-09-08T16:40:01;6.65;;;5.85;;
16579;SDS011;8402;51.466;6.806;2023-09-08T16:42:34;9.88;;;5.82;;
16579;SDS011;8402;51.466;6.806;2023-09-08T16:45:04;7.97;;;6.32;;
16579;SDS011;8402;51.466;6.806;2023-09-08T16:47:35;8.90;;;6.22;;
16579;SDS011;8402;51.466;6.806;2023-09-08T16:50:06;8.48;;;6.38;;
16579;SDS011;8402;51.466;6.806;2023-09-08T16:52:36;9.15;;;5.70;;
16579;SDS011;8402;51.466;6.806;2023-09-08T16:55:06;10.32;;;6.22;;
16579;SDS011;8402;51.466;6.806;2023-09-08T16:57:40;11.65;;;6.28;;
16579;SDS011;8402;51.466;6.806;2023-09-08T17:00:10;11.50;;;6.00;;
16579;SDS011;8402;51.466;6.806;2023-09-08T17:02:41;7.82;;;5.88;;
16579;SDS011;8402;51.466;6.806;2023-09-08T17:05:11;10.82;;;6.05;;
16579;SDS011;8402;51.466;6.806;2023-09-08T17:07:43;7.70;;;6.10;;
16579;SDS011;8402;51.466;6.806;2023-09-08T17:10:13;7.10;;;6.05;;
16579;SDS011;8402;51.466;6.806;2023-09-08T17:12:46;9.13;;;6.00;;
16579;SDS011;8402;51.466;6.806;2023-09-08T17:15:16;9.23;;;5.95;;
16579;SDS011;8402;51.466;6.806;2023-09-08T17:18:00;21.80;;;6.82;;
16579;SDS011;8402;51.466;6.806;2023-09-08T17:20:32;26.15;;;10.38;;
16579;SDS011;8402;51.466;6.806;2023-09-08T17:23:03;24.65;;;9.15;;
16579;SDS011;8402;51.466;6.806;2023-09-08T17:25:34;10.25;;;6.32;;
16579;SDS011;8402;51.466;6.806;2023-09-08T17:28:08;17.77;;;6.78;;
16579;SDS011;8402;51.466;6.806;2023-09-08T17:30:38;12.50;;;6.18;;
16579;SDS011;8402;51.466;6.806;2023-09-08T17:33:08;8.93;;;6.25;;
16579;SDS011;8402;51.466;6.806;2023-09-08T17:35:38;22.23;;;6.82;;
16579;SDS011;8402;51.466;6.806;2023-09-08T17:38:09;15.73;;;6.03;;
16579;SDS011;8402;51.466;6.806;2023-09-08T17:40:40;10.70;;;6.57;;
16579;SDS011;8402;51.466;6.806;2023-09-08T17:43:12;7.57;;;6.20;;
16579;SDS011;8402;51.466;6.806;2023-09-08T17:45:43;11.15;;;6.43;;
16579;SDS011;8402;51.466;6.806;2023-09-08T17:48:14;15.18;;;6.38;;
16579;SDS011;8402;51.466;6.806;2023-09-08T17:50:44;18.55;;;6.72;;
16579;SDS011;8402;51.466;6.806;2023-09-08T17:53:13;16.40;;;6.78;;
16579;SDS011;8402;51.466;6.806;2023-09-08T17:55:43;14.18;;;6.80;;
16579;SDS011;8402;51.466;6.806;2023-09-08T17:58:16;10.85;;;6.75;;
16579;SDS011;8402;51.466;6.806;2023-09-08T18:00:45;12.93;;;6.82;;
16579;SDS011;8402;51.466;6.806;2023-09-08T18:03:15;10.93;;;7.03;;
16579;SDS011;8402;51.466;6.806;2023-09-08T18:05:48;11.68;;;7.00;;
16579;SDS011;8402;51.466;6.806;2023-09-08T18:08:18;14.05;;;7.38;;
16579;SDS011;8402;51.466;6.806;2023-09-08T18:10:48;13.07;;;6.90;;
16579;SDS011;8402;51.466;6.806;2023-09-08T18:13:21;8.55;;;6.45;;
16579;SDS011;8402;51.466;6.806;2023-09-08T18:15:55;11.25;;;6.78;;
16579;SDS011;8402;51.466;6.806;2023-09-08T18:18:26;12.48;;;6.60;;
16579;SDS011;8402;51.466;6.806;2023-09-08T18:20:56;12.95;;;7.47;;
16579;SDS011;8402;51.466;6.806;2023-09-08T18:23:25;16.25;;;7.22;;
16579;SDS011;8402;51.466;6.806;2023-09-08T18:25:55;14.25;;;6.85;;
16579;SDS011;8402;51.466;6.806;2023-09-08T18:28:28;12.45;;;7.20;;
16579;SDS011;8402;51.466;6.806;2023-09-08T18:30:58;10.50;;;6.80;;
16579;SDS011;8402;51.466;6.806;2023-09-08T18:33:28;10.70;;;7.30;;
16579;SDS011;8402;51.466;6.806;2023-09-08T18:35:58;11.35;;;7.22;;
16579;SDS011;8402;51.466;6.806;2023-09-08T18:38:28;11.35;;;7.18;;
16579;SDS011;8402;51.466;6.806;2023-09-08T18:40:58;13.13;;;7.05;;
16579;SDS011;8402;51.466;6.806;2023-09-08T18:43:30;7.28;;;6.30;;
16579;SDS011;8402;51.466;6.806;2023-09-08T18:46:01;9.73;;;6.88;;
16579;SDS011;8402;51.466;6.806;2023-09-08T18:48:30;11.00;;;6.90;;
16579;SDS011;8402;51.466;6.806;2023-09-08T18:51:01;10.18;;;7.10;;
16579;SDS011;8402;51.466;6.806;2023-09-08T18:53:31;9.10;;;7.13;;
16579;SDS011;8402;51.466;6.806;2023-09-08T18:56:02;11.32;;;7.50;;
16579;SDS011;8402;51.466;6.806;2023-09-08T18:58:34;12.85;;;7.18;;
16579;SDS011;8402;51.466;6.806;2023-09-08T19:01:04;8.65;;;6.75;;
16579;SDS011;8402;51.466;6.806;2023-09-08T19:03:35;9.90;;;7.25;;
16579;SDS011;8402;51.466;6.806;2023-09-08T19:06:07;11.68;;;7.43;;
16579;SDS011;8402;51.466;6.806;2023-09-08T19:08:37;11.32;;;7.32;;
16579;SDS011;8402;51.466;6.806;2023-09-08T19:11:07;10.30;;;7.68;;
16579;SDS011;8402;51.466;6.806;2023-09-08T19:13:40;13.63;;;7.10;;
16579;SDS011;8402;51.466;6.806;2023-09-08T19:16:10;12.65;;;7.40;;
16579;SDS011;8402;51.466;6.806;2023-09-08T19:18:40;12.88;;;7.47;;
16579;SDS011;8402;51.466;6.806;2023-09-08T19:21:10;19.63;;;8.27;;
16579;SDS011;8402;51.466;6.806;2023-09-08T19:23:40;16.15;;;8.50;;
16579;SDS011;8402;51.466;6.806;2023-09-08T19:26:10;18.90;;;8.55;;
16579;SDS011;8402;51.466;6.806;2023-09-08T19:28:43;15.95;;;8.52;;
16579;SDS011;8402;51.466;6.806;2023-09-08T19:31:13;19.88;;;8.88;;
16579;SDS011;8402;51.466;6.806;2023-09-08T19:33:42;16.30;;;8.48;;
16579;SDS011;8402;51.466;6.806;2023-09-08T19:36:12;16.38;;;9.20;;
16579;SDS011;8402;51.466;6.806;2023-09-08T19:38:42;16.58;;;8.18;;
16579;SDS011;8402;51.466;6.806;2023-09-08T19:41:13;11.70;;;8.07;;
16579;SDS011;8402;51.466;6.806;2023-09-08T19:43:46;17.25;;;9.18;;
16579;SDS011;8402;51.466;6.806;2023-09-08T19:46:16;14.52;;;8.75;;
16579;SDS011;8402;51.466;6.806;2023-09-08T19:48:46;18.63;;;10.10;;
16579;SDS011;8402;51.466;6.806;2023-09-08T19:51:16;14.57;;;9.88;;
16579;SDS011;8402;51.466;6.806;2023-09-08T19:53:49;13.95;;;9.98;;
16579;SDS011;8402;51.466;6.806;2023-09-08T19:56:25;17.10;;;10.85;;
16579;SDS011;8402;51.466;6.806;2023-09-08T19:59:03;22.45;;;11.68;;
16579;SDS011;8402;51.466;6.806;2023-09-08T20:01:51;15.50;;;10.30;;
16579;SDS011;8402;51.466;6.806;2023-09-08T20:04:22;14.80;;;10.40;;
16579;SDS011;8402;51.466;6.806;2023-09-08T20:06:54;15.50;;;10.70;;
16579;SDS011;8402;51.466;6.806;2023-09-08T20:09:24;16.60;;;11.40;;
16579;SDS011;8402;51.466;6.806;2023-09-08T20:11:57;16.60;;;11.40;;
16579;SDS011;8402;51.466;6.806;2023-09-08T20:14:30;15.70;;;10.48;;
16579;SDS011;8402;51.466;6.806;2023-09-08T20:17:00;16.02;;;11.00;;
16579;SDS011;8402;51.466;6.806;2023-09-08T20:19:31;20.45;;;12.68;;
16579;SDS011;8402;51.466;6.806;2023-09-08T20:22:06;19.15;;;12.13;;
16579;SDS011;8402;51.466;6.806;2023-09-08T20:24:40;18.15;;;12.75;;
16579;SDS011;8402;51.466;6.806;2023-09-08T20:27:18;14.60;;;11.10;;
16579;SDS011;8402;51.466;6.806;2023-09-08T20:29:50;14.55;;;10.90;;
16579;SDS011;8402;51.466;6.806;2023-09-08T20:32:23;13.57;;;10.60;;
16579;SDS011;8402;51.466;6.806;2023-09-08T20:34:52;19.60;;;10.70;;
16579;SDS011;8402;51.466;6.806;2023-09-08T20:37:22;13.07;;;9.85;;
16579;SDS011;8402;51.466;6.806;2023-09-08T20:39:53;17.45;;;10.70;;
16579;SDS011;8402;51.466;6.806;2023-09-08T20:42:23;15.80;;;10.73;;
16579;SDS011;8402;51.466;6.806;2023-09-08T20:44:56;14.35;;;10.10;;
16579;SDS011;8402;51.466;6.806;2023-09-08T20:47:26;13.80;;;10.48;;
16579;SDS011;8402;51.466;6.806;2023-09-08T20:49:56;16.73;;;10.68;;
16579;SDS011;8402;51.466;6.806;2023-09-08T20:52:26;16.63;;;11.07;;
16579;SDS011;8402;51.466;6.806;2023-09-08T20:54:55;14.60;;;10.90;;
16579;SDS011;8402;51.466;6.806;2023-09-08T20:57:25;14.15;;;10.18;;
16579;SDS011;8402;51.466;6.806;2023-09-08T20:59:58;13.90;;;10.48;;
16579;SDS011;8402;51.466;6.806;2023-09-08T21:02:28;16.67;;;10.98;;
16579;SDS011;8402;51.466;6.806;2023-09-08T21:04:58;15.15;;;10.05;;